Alamance, North Carolina
Current Conditions -  °F | °C
As of 11:54 AM on Friday 21 Nov 2014 (Local Time) from KBUY Reporting Station
Clear Clear  
Wind Chill: 41°   Ceiling: Unl
Heat Index: 45°   Visibility: 10mi
Dew Point: 11°   Wind: 8mph
Humidity: 25%   Direction: 330°NNW
Pressure: 30.43"   Gusts: NA
Location:  36.04°N, 79.49°W
Report Text: KBUY 211654Z AUTO 33007KT 10SM CLR 07/M12 A3043 RMK AO2 SLP307 T00721117
Loading
Personal Weather Stations






























Interactive Weather Map New forecast layout! Learn more

10-Day Weather Forecast

Advertisements
Track Severe Weather on mobile